sensor_id;sensor_type;location;lat;lon;timestamp;temperature;humidity
13198;DHT22;6664;52.514;13.440;2022-11-15T00:02:40;5.20;99.50
13198;DHT22;6664;52.514;13.440;2022-11-15T00:05:26;5.20;99.60
13198;DHT22;6664;52.514;13.440;2022-11-15T00:08:11;5.20;99.50
13198;DHT22;6664;52.514;13.440;2022-11-15T00:10:58;5.20;99.70
13198;DHT22;6664;52.514;13.440;2022-11-15T00:13:44;5.00;99.40
13198;DHT22;6664;52.514;13.440;2022-11-15T00:16:30;5.10;99.60
13198;DHT22;6664;52.514;13.440;2022-11-15T00:19:16;5.00;99.60
13198;DHT22;6664;52.514;13.440;2022-11-15T00:22:01;5.00;99.70
13198;DHT22;6664;52.514;13.440;2022-11-15T00:24:46;5.10;99.70
13198;DHT22;6664;52.514;13.440;2022-11-15T00:27:35;5.10;99.80
13198;DHT22;6664;52.514;13.440;2022-11-15T00:30:20;5.00;99.90
13198;DHT22;6664;52.514;13.440;2022-11-15T00:33:06;5.00;99.90
13198;DHT22;6664;52.514;13.440;2022-11-15T00:35:54;5.10;99.90
13198;DHT22;6664;52.514;13.440;2022-11-15T00:38:44;5.00;99.70
13198;DHT22;6664;52.514;13.440;2022-11-15T00:41:31;4.90;99.60
13198;DHT22;6664;52.514;13.440;2022-11-15T00:44:17;4.90;99.90
13198;DHT22;6664;52.514;13.440;2022-11-15T00:47:02;4.90;99.70
13198;DHT22;6664;52.514;13.440;2022-11-15T00:49:49;4.80;99.80
13198;DHT22;6664;52.514;13.440;2022-11-15T00:52:34;4.90;99.90
13198;DHT22;6664;52.514;13.440;2022-11-15T00:55:19;4.90;99.90
13198;DHT22;6664;52.514;13.440;2022-11-15T00:58:05;4.90;99.90
13198;DHT22;6664;52.514;13.440;2022-11-15T01:00:50;4.90;99.90
13198;DHT22;6664;52.514;13.440;2022-11-15T01:03:37;4.90;99.90
13198;DHT22;6664;52.514;13.440;2022-11-15T01:06:25;4.80;99.90
13198;DHT22;6664;52.514;13.440;2022-11-15T01:09:10;4.90;99.90
13198;DHT22;6664;52.514;13.440;2022-11-15T01:11:56;4.80;99.90
13198;DHT22;6664;52.514;13.440;2022-11-15T01:14:41;4.80;99.90
13198;DHT22;6664;52.514;13.440;2022-11-15T01:17:30;4.90;99.90
13198;DHT22;6664;52.514;13.440;2022-11-15T01:20:16;4.80;99.90
13198;DHT22;6664;52.514;13.440;2022-11-15T01:23:01;4.70;99.90
13198;DHT22;6664;52.514;13.440;2022-11-15T01:25:46;4.70;99.90
13198;DHT22;6664;52.514;13.440;2022-11-15T01:28:33;4.70;99.90
13198;DHT22;6664;52.514;13.440;2022-11-15T01:31:39;4.80;99.90
13198;DHT22;6664;52.514;13.440;2022-11-15T01:34:25;4.80;99.90
13198;DHT22;6664;52.514;13.440;2022-11-15T01:37:10;4.70;99.90
13198;DHT22;6664;52.514;13.440;2022-11-15T01:39:59;4.70;99.90
13198;DHT22;6664;52.514;13.440;2022-11-15T01:42:44;4.70;99.90
13198;DHT22;6664;52.514;13.440;2022-11-15T01:45:30;4.60;99.90
13198;DHT22;6664;52.514;13.440;2022-11-15T01:48:18;4.70;99.90
13198;DHT22;6664;52.514;13.440;2022-11-15T01:51:07;4.80;99.90
13198;DHT22;6664;52.514;13.440;2022-11-15T01:54:02;4.60;99.90
13198;DHT22;6664;52.514;13.440;2022-11-15T01:56:55;4.60;99.90
13198;DHT22;6664;52.514;13.440;2022-11-15T01:59:44;4.70;99.90
13198;DHT22;6664;52.514;13.440;2022-11-15T02:02:30;4.70;99.90
13198;DHT22;6664;52.514;13.440;2022-11-15T02:05:16;4.60;99.90
13198;DHT22;6664;52.514;13.440;2022-11-15T02:08:01;4.60;99.90
13198;DHT22;6664;52.514;13.440;2022-11-15T02:10:47;4.60;99.90
13198;DHT22;6664;52.514;13.440;2022-11-15T02:13:32;4.60;99.90
13198;DHT22;6664;52.514;13.440;2022-11-15T02:17:24;4.70;99.90
13198;DHT22;6664;52.514;13.440;2022-11-15T02:20:24;4.70;99.90
13198;DHT22;6664;52.514;13.440;2022-11-15T02:33:43;4.60;99.90
13198;DHT22;6664;52.514;13.440;2022-11-15T02:43:21;4.60;99.90
13198;DHT22;6664;52.514;13.440;2022-11-15T02:49:53;4.60;99.90
13198;DHT22;6664;52.514;13.440;2022-11-15T02:52:49;4.60;99.90
13198;DHT22;6664;52.514;13.440;2022-11-15T02:55:41;4.60;99.90
13198;DHT22;6664;52.514;13.440;2022-11-15T03:05:03;4.60;99.90
13198;DHT22;6664;52.514;13.440;2022-11-15T03:11:48;4.70;99.90
13198;DHT22;6664;52.514;13.440;2022-11-15T03:18:44;4.70;99.90
13198;DHT22;6664;52.514;13.440;2022-11-15T03:21:37;4.70;99.90
13198;DHT22;6664;52.514;13.440;2022-11-15T03:24:37;4.60;99.90
13198;DHT22;6664;52.514;13.440;2022-11-15T03:27:43;4.60;99.90
13198;DHT22;6664;52.514;13.440;2022-11-15T03:30:32;4.70;99.90
13198;DHT22;6664;52.514;13.440;2022-11-15T03:33:21;4.60;99.90
13198;DHT22;6664;52.514;13.440;2022-11-15T03:36:07;4.60;99.90
13198;DHT22;6664;52.514;13.440;2022-11-15T03:39:02;4.70;99.90
13198;DHT22;6664;52.514;13.440;2022-11-15T03:45:14;4.60;99.90
13198;DHT22;6664;52.514;13.440;2022-11-15T03:48:35;4.70;99.90
13198;DHT22;6664;52.514;13.440;2022-11-15T03:51:25;4.60;99.90
13198;DHT22;6664;52.514;13.440;2022-11-15T03:54:12;4.50;99.90
13198;DHT22;6664;52.514;13.440;2022-11-15T03:57:01;4.60;99.90
13198;DHT22;6664;52.514;13.440;2022-11-15T03:59:53;4.70;99.90
13198;DHT22;6664;52.514;13.440;2022-11-15T04:02:42;4.60;99.90
13198;DHT22;6664;52.514;13.440;2022-11-15T04:05:28;4.70;99.90
13198;DHT22;6664;52.514;13.440;2022-11-15T04:08:18;4.60;99.90
13198;DHT22;6664;52.514;13.440;2022-11-15T04:11:10;4.70;99.90
13198;DHT22;6664;52.514;13.440;2022-11-15T04:13:55;4.70;99.90
13198;DHT22;6664;52.514;13.440;2022-11-15T04:16:41;4.60;99.90
13198;DHT22;6664;52.514;13.440;2022-11-15T04:19:28;4.60;99.90
13198;DHT22;6664;52.514;13.440;2022-11-15T04:22:32;4.70;99.90
13198;DHT22;6664;52.514;13.440;2022-11-15T04:25:37;4.70;99.90
13198;DHT22;6664;52.514;13.440;2022-11-15T04:28:27;4.80;99.90
13198;DHT22;6664;52.514;13.440;2022-11-15T04:31:14;4.60;99.90
13198;DHT22;6664;52.514;13.440;2022-11-15T04:33:59;4.70;99.90
13198;DHT22;6664;52.514;13.440;2022-11-15T04:36:45;4.70;99.90
13198;DHT22;6664;52.514;13.440;2022-11-15T04:39:49;4.70;99.90
13198;DHT22;6664;52.514;13.440;2022-11-15T04:42:40;4.70;99.90
13198;DHT22;6664;52.514;13.440;2022-11-15T04:45:27;4.70;99.90
13198;DHT22;6664;52.514;13.440;2022-11-15T04:48:18;4.70;99.90
13198;DHT22;6664;52.514;13.440;2022-11-15T04:51:03;4.70;99.90
13198;DHT22;6664;52.514;13.440;2022-11-15T04:53:49;4.60;99.90
13198;DHT22;6664;52.514;13.440;2022-11-15T04:56:35;4.60;99.90
13198;DHT22;6664;52.514;13.440;2022-11-15T04:59:21;4.60;99.90
13198;DHT22;6664;52.514;13.440;2022-11-15T05:02:07;4.60;99.90
13198;DHT22;6664;52.514;13.440;2022-11-15T05:04:53;4.70;99.90
13198;DHT22;6664;52.514;13.440;2022-11-15T05:07:38;4.70;99.90
13198;DHT22;6664;52.514;13.440;2022-11-15T05:10:23;4.70;99.90
13198;DHT22;6664;52.514;13.440;2022-11-15T05:13:09;4.70;99.90
13198;DHT22;6664;52.514;13.440;2022-11-15T05:15:55;4.60;99.90
13198;DHT22;6664;52.514;13.440;2022-11-15T05:18:40;4.60;99.90
13198;DHT22;6664;52.514;13.440;2022-11-15T05:21:26;4.60;99.90
13198;DHT22;6664;52.514;13.440;2022-11-15T05:24:13;4.70;99.90
13198;DHT22;6664;52.514;13.440;2022-11-15T05:27:01;4.60;99.90
13198;DHT22;6664;52.514;13.440;2022-11-15T05:29:50;4.70;99.90
13198;DHT22;6664;52.514;13.440;2022-11-15T05:32:35;4.70;99.90
13198;DHT22;6664;52.514;13.440;2022-11-15T05:35:34;4.60;99.90
13198;DHT22;6664;52.514;13.440;2022-11-15T05:38:23;4.60;99.90
13198;DHT22;6664;52.514;13.440;2022-11-15T05:41:09;4.60;99.90
13198;DHT22;6664;52.514;13.440;2022-11-15T05:43:56;4.70;99.90
13198;DHT22;6664;52.514;13.440;2022-11-15T05:46:44;4.70;99.90
13198;DHT22;6664;52.514;13.440;2022-11-15T05:49:32;4.60;99.90
13198;DHT22;6664;52.514;13.440;2022-11-15T05:52:23;4.70;99.90
13198;DHT22;6664;52.514;13.440;2022-11-15T05:55:10;4.60;99.90
13198;DHT22;6664;52.514;13.440;2022-11-15T05:57:55;4.70;99.90
13198;DHT22;6664;52.514;13.440;2022-11-15T06:00:41;4.60;99.90
13198;DHT22;6664;52.514;13.440;2022-11-15T06:03:28;4.60;99.90
13198;DHT22;6664;52.514;13.440;2022-11-15T06:06:14;4.50;99.90
13198;DHT22;6664;52.514;13.440;2022-11-15T06:09:02;4.50;99.90
13198;DHT22;6664;52.514;13.440;2022-11-15T06:11:48;4.60;99.90
13198;DHT22;6664;52.514;13.440;2022-11-15T06:14:33;4.50;99.90
13198;DHT22;6664;52.514;13.440;2022-11-15T06:17:19;4.50;99.90
13198;DHT22;6664;52.514;13.440;2022-11-15T06:20:07;4.60;99.90
13198;DHT22;6664;52.514;13.440;2022-11-15T06:23:03;4.70;99.90
13198;DHT22;6664;52.514;13.440;2022-11-15T06:25:48;4.60;99.90
13198;DHT22;6664;52.514;13.440;2022-11-15T06:28:34;4.70;99.90
13198;DHT22;6664;52.514;13.440;2022-11-15T06:31:19;4.70;99.90
13198;DHT22;6664;52.514;13.440;2022-11-15T06:34:05;4.70;99.90
13198;DHT22;6664;52.514;13.440;2022-11-15T06:36:50;4.70;99.90
13198;DHT22;6664;52.514;13.440;2022-11-15T06:39:35;4.70;99.90
13198;DHT22;6664;52.514;13.440;2022-11-15T06:42:21;4.70;99.90
13198;DHT22;6664;52.514;13.440;2022-11-15T06:45:07;4.70;99.90
13198;DHT22;6664;52.514;13.440;2022-11-15T06:47:53;4.80;99.90
13198;DHT22;6664;52.514;13.440;2022-11-15T06:50:38;4.70;99.90
13198;DHT22;6664;52.514;13.440;2022-11-15T06:53:27;4.80;99.90
13198;DHT22;6664;52.514;13.440;2022-11-15T06:56:13;4.80;99.90
13198;DHT22;6664;52.514;13.440;2022-11-15T06:59:01;4.90;99.90
13198;DHT22;6664;52.514;13.440;2022-11-15T07:01:47;4.80;99.90
13198;DHT22;6664;52.514;13.440;2022-11-15T07:04:34;4.90;99.90
13198;DHT22;6664;52.514;13.440;2022-11-15T07:07:19;5.00;99.90
13198;DHT22;6664;52.514;13.440;2022-11-15T07:10:06;4.90;99.90
13198;DHT22;6664;52.514;13.440;2022-11-15T07:12:55;5.00;99.90
13198;DHT22;6664;52.514;13.440;2022-11-15T07:15:43;5.00;99.90
13198;DHT22;6664;52.514;13.440;2022-11-15T07:18:28;5.00;99.90
13198;DHT22;6664;52.514;13.440;2022-11-15T07:21:16;5.00;99.90
13198;DHT22;6664;52.514;13.440;2022-11-15T07:24:14;5.10;99.90
13198;DHT22;6664;52.514;13.440;2022-11-15T07:27:02;5.20;99.90
13198;DHT22;6664;52.514;13.440;2022-11-15T07:29:48;5.20;99.80
13198;DHT22;6664;52.514;13.440;2022-11-15T07:32:35;5.20;99.50
13198;DHT22;6664;52.514;13.440;2022-11-15T07:35:20;5.30;99.40
13198;DHT22;6664;52.514;13.440;2022-11-15T07:38:11;5.20;99.10
13198;DHT22;6664;52.514;13.440;2022-11-15T07:41:03;5.30;99.00
13198;DHT22;6664;52.514;13.440;2022-11-15T07:43:51;5.30;99.10
13198;DHT22;6664;52.514;13.440;2022-11-15T07:46:37;5.30;99.10
13198;DHT22;6664;52.514;13.440;2022-11-15T07:49:22;5.40;99.10
13198;DHT22;6664;52.514;13.440;2022-11-15T07:52:12;5.50;99.20
13198;DHT22;6664;52.514;13.440;2022-11-15T07:54:57;5.60;99.20
13198;DHT22;6664;52.514;13.440;2022-11-15T07:57:45;5.60;99.00
13198;DHT22;6664;52.514;13.440;2022-11-15T08:00:31;5.70;98.70
13198;DHT22;6664;52.514;13.440;2022-11-15T08:03:17;5.80;98.50
13198;DHT22;6664;52.514;13.440;2022-11-15T08:06:02;5.90;97.90
13198;DHT22;6664;52.514;13.440;2022-11-15T08:08:48;5.90;97.50
13198;DHT22;6664;52.514;13.440;2022-11-15T08:11:36;5.90;97.20
13198;DHT22;6664;52.514;13.440;2022-11-15T08:14:22;6.00;96.90
13198;DHT22;6664;52.514;13.440;2022-11-15T08:17:09;6.00;96.70
13198;DHT22;6664;52.514;13.440;2022-11-15T08:19:57;6.00;96.50
13198;DHT22;6664;52.514;13.440;2022-11-15T08:22:42;6.00;96.40
13198;DHT22;6664;52.514;13.440;2022-11-15T08:25:31;6.10;96.40
13198;DHT22;6664;52.514;13.440;2022-11-15T08:28:19;6.10;96.30
13198;DHT22;6664;52.514;13.440;2022-11-15T08:31:05;6.10;96.10
13198;DHT22;6664;52.514;13.440;2022-11-15T08:33:52;6.20;96.00
13198;DHT22;6664;52.514;13.440;2022-11-15T08:36:38;6.20;95.80
13198;DHT22;6664;52.514;13.440;2022-11-15T08:39:31;6.20;95.70
13198;DHT22;6664;52.514;13.440;2022-11-15T08:42:17;6.30;95.60
13198;DHT22;6664;52.514;13.440;2022-11-15T08:45:06;6.40;95.50
13198;DHT22;6664;52.514;13.440;2022-11-15T08:47:52;6.40;95.30
13198;DHT22;6664;52.514;13.440;2022-11-15T08:50:39;6.50;95.00
13198;DHT22;6664;52.514;13.440;2022-11-15T08:53:24;6.60;94.80
13198;DHT22;6664;52.514;13.440;2022-11-15T08:56:11;6.60;94.60
13198;DHT22;6664;52.514;13.440;2022-11-15T08:58:57;6.60;94.60
13198;DHT22;6664;52.514;13.440;2022-11-15T09:01:42;6.70;94.60
13198;DHT22;6664;52.514;13.440;2022-11-15T09:04:31;6.70;94.50
13198;DHT22;6664;52.514;13.440;2022-11-15T09:07:16;6.70;94.40
13198;DHT22;6664;52.514;13.440;2022-11-15T09:10:07;6.80;94.30
13198;DHT22;6664;52.514;13.440;2022-11-15T09:12:52;6.90;94.20
13198;DHT22;6664;52.514;13.440;2022-11-15T09:15:38;6.90;94.00
13198;DHT22;6664;52.514;13.440;2022-11-15T09:18:24;7.00;93.80
13198;DHT22;6664;52.514;13.440;2022-11-15T09:21:09;7.10;93.60
13198;DHT22;6664;52.514;13.440;2022-11-15T09:23:58;7.20;93.40
13198;DHT22;6664;52.514;13.440;2022-11-15T09:26:43;7.20;93.20
13198;DHT22;6664;52.514;13.440;2022-11-15T09:29:29;7.30;93.10
13198;DHT22;6664;52.514;13.440;2022-11-15T09:32:15;7.40;92.80
13198;DHT22;6664;52.514;13.440;2022-11-15T09:35:01;7.50;92.80
13198;DHT22;6664;52.514;13.440;2022-11-15T09:37:49;7.60;92.60
13198;DHT22;6664;52.514;13.440;2022-11-15T09:40:41;7.60;92.30
13198;DHT22;6664;52.514;13.440;2022-11-15T09:47:05;7.80;91.80
13198;DHT22;6664;52.514;13.440;2022-11-15T09:50:00;7.90;91.70
13198;DHT22;6664;52.514;13.440;2022-11-15T09:52:48;8.00;91.20
13198;DHT22;6664;52.514;13.440;2022-11-15T09:55:59;8.10;90.90
13198;DHT22;6664;52.514;13.440;2022-11-15T09:59:10;8.20;90.90
13198;DHT22;6664;52.514;13.440;2022-11-15T10:02:36;8.20;90.70
13198;DHT22;6664;52.514;13.440;2022-11-15T10:05:26;8.40;90.50
13198;DHT22;6664;52.514;13.440;2022-11-15T10:11:24;8.50;90.10
13198;DHT22;6664;52.514;13.440;2022-11-15T10:14:28;8.60;89.50
13198;DHT22;6664;52.514;13.440;2022-11-15T10:17:38;8.70;88.50
13198;DHT22;6664;52.514;13.440;2022-11-15T10:20:30;8.80;88.20
13198;DHT22;6664;52.514;13.440;2022-11-15T10:23:22;8.90;87.50
13198;DHT22;6664;52.514;13.440;2022-11-15T10:26:15;9.00;87.00
13198;DHT22;6664;52.514;13.440;2022-11-15T10:29:03;9.10;86.50
13198;DHT22;6664;52.514;13.440;2022-11-15T10:31:49;9.10;86.20
13198;DHT22;6664;52.514;13.440;2022-11-15T10:34:36;9.20;85.40
13198;DHT22;6664;52.514;13.440;2022-11-15T10:37:31;9.20;85.00
13198;DHT22;6664;52.514;13.440;2022-11-15T10:40:21;9.40;84.40
13198;DHT22;6664;52.514;13.440;2022-11-15T10:46:18;9.50;83.10
13198;DHT22;6664;52.514;13.440;2022-11-15T10:49:27;9.60;82.10
13198;DHT22;6664;52.514;13.440;2022-11-15T10:52:17;9.80;81.40
13198;DHT22;6664;52.514;13.440;2022-11-15T10:58:05;9.90;80.50
13198;DHT22;6664;52.514;13.440;2022-11-15T11:00:53;9.90;80.10
13198;DHT22;6664;52.514;13.440;2022-11-15T11:03:40;10.00;78.10
13198;DHT22;6664;52.514;13.440;2022-11-15T11:06:27;10.10;77.60
13198;DHT22;6664;52.514;13.440;2022-11-15T11:09:37;10.20;77.80
13198;DHT22;6664;52.514;13.440;2022-11-15T11:12:28;10.30;77.50
13198;DHT22;6664;52.514;13.440;2022-11-15T11:15:16;10.30;77.10
13198;DHT22;6664;52.514;13.440;2022-11-15T11:18:11;10.30;76.60
13198;DHT22;6664;52.514;13.440;2022-11-15T11:21:13;10.40;76.30
13198;DHT22;6664;52.514;13.440;2022-11-15T11:30:20;10.60;75.30
13198;DHT22;6664;52.514;13.440;2022-11-15T11:33:16;10.70;75.20
13198;DHT22;6664;52.514;13.440;2022-11-15T11:36:08;10.80;74.80
13198;DHT22;6664;52.514;13.440;2022-11-15T11:39:37;10.90;74.00
13198;DHT22;6664;52.514;13.440;2022-11-15T11:48:57;11.10;73.00
13198;DHT22;6664;52.514;13.440;2022-11-15T12:01:08;11.30;71.80
13198;DHT22;6664;52.514;13.440;2022-11-15T12:07:24;11.40;71.30
13198;DHT22;6664;52.514;13.440;2022-11-15T12:10:26;11.40;70.90
13198;DHT22;6664;52.514;13.440;2022-11-15T12:13:21;11.40;70.90
13198;DHT22;6664;52.514;13.440;2022-11-15T12:18:59;11.50;70.30
13198;DHT22;6664;52.514;13.440;2022-11-15T12:21:54;11.60;70.10
13198;DHT22;6664;52.514;13.440;2022-11-15T12:24:50;11.60;69.90
13198;DHT22;6664;52.514;13.440;2022-11-15T12:27:50;11.60;69.80
13198;DHT22;6664;52.514;13.440;2022-11-15T12:33:42;11.70;69.80
13198;DHT22;6664;52.514;13.440;2022-11-15T12:36:36;11.70;69.70
13198;DHT22;6664;52.514;13.440;2022-11-15T12:40:03;11.70;69.60
13198;DHT22;6664;52.514;13.440;2022-11-15T12:46:03;11.70;69.10
13198;DHT22;6664;52.514;13.440;2022-11-15T12:48:52;11.70;69.00
13198;DHT22;6664;52.514;13.440;2022-11-15T13:03:21;11.80;68.80
13198;DHT22;6664;52.514;13.440;2022-11-15T13:06:33;11.90;68.80
13198;DHT22;6664;52.514;13.440;2022-11-15T13:18:15;12.00;68.60
13198;DHT22;6664;52.514;13.440;2022-11-15T13:21:19;12.20;69.20
13198;DHT22;6664;52.514;13.440;2022-11-15T13:24:24;15.60;64.50
13198;DHT22;6664;52.514;13.440;2022-11-15T13:27:15;19.40;53.60
13198;DHT22;6664;52.514;13.440;2022-11-15T13:30:04;21.20;45.80
13198;DHT22;6664;52.514;13.440;2022-11-15T13:32:54;21.30;41.40
13198;DHT22;6664;52.514;13.440;2022-11-15T13:35:47;19.70;41.70
13198;DHT22;6664;52.514;13.440;2022-11-15T13:38:40;20.60;40.40
13198;DHT22;6664;52.514;13.440;2022-11-15T13:41:28;18.10;41.60
13198;DHT22;6664;52.514;13.440;2022-11-15T13:44:29;16.30;45.90
13198;DHT22;6664;52.514;13.440;2022-11-15T13:47:19;15.20;49.00
13198;DHT22;6664;52.514;13.440;2022-11-15T13:50:05;14.60;51.40
13198;DHT22;6664;52.514;13.440;2022-11-15T13:52:58;14.10;53.10
13198;DHT22;6664;52.514;13.440;2022-11-15T13:55:47;13.70;55.00
13198;DHT22;6664;52.514;13.440;2022-11-15T13:58:33;13.30;56.40
13198;DHT22;6664;52.514;13.440;2022-11-15T14:01:22;13.10;57.70
13198;DHT22;6664;52.514;13.440;2022-11-15T14:04:14;12.80;59.00
13198;DHT22;6664;52.514;13.440;2022-11-15T14:07:03;12.60;59.80
13198;DHT22;6664;52.514;13.440;2022-11-15T14:09:49;12.40;60.80
13198;DHT22;6664;52.514;13.440;2022-11-15T14:12:35;12.30;61.80
13198;DHT22;6664;52.514;13.440;2022-11-15T14:15:33;12.10;62.50
13198;DHT22;6664;52.514;13.440;2022-11-15T14:18:51;12.00;63.70
13198;DHT22;6664;52.514;13.440;2022-11-15T14:22:18;11.90;64.10
13198;DHT22;6664;52.514;13.440;2022-11-15T14:25:12;11.80;64.60
13198;DHT22;6664;52.514;13.440;2022-11-15T14:31:13;11.50;66.60
13198;DHT22;6664;52.514;13.440;2022-11-15T14:34:00;11.40;67.20
13198;DHT22;6664;52.514;13.440;2022-11-15T14:36:46;11.30;68.10
13198;DHT22;6664;52.514;13.440;2022-11-15T14:39:31;11.20;68.30
13198;DHT22;6664;52.514;13.440;2022-11-15T14:42:18;11.10;68.80
13198;DHT22;6664;52.514;13.440;2022-11-15T14:45:16;11.00;69.30
13198;DHT22;6664;52.514;13.440;2022-11-15T14:48:01;10.90;69.80
13198;DHT22;6664;52.514;13.440;2022-11-15T14:50:47;10.80;70.70
13198;DHT22;6664;52.514;13.440;2022-11-15T14:53:33;10.80;71.30
13198;DHT22;6664;52.514;13.440;2022-11-15T14:56:21;10.70;71.60
13198;DHT22;6664;52.514;13.440;2022-11-15T14:59:06;10.60;72.40
13198;DHT22;6664;52.514;13.440;2022-11-15T15:01:52;10.50;72.90
13198;DHT22;6664;52.514;13.440;2022-11-15T15:04:37;10.30;73.00
13198;DHT22;6664;52.514;13.440;2022-11-15T15:07:23;10.30;74.20
13198;DHT22;6664;52.514;13.440;2022-11-15T15:10:09;10.20;74.70
13198;DHT22;6664;52.514;13.440;2022-11-15T15:13:23;10.00;75.20
13198;DHT22;6664;52.514;13.440;2022-11-15T15:16:09;10.00;76.30
13198;DHT22;6664;52.514;13.440;2022-11-15T15:18:54;10.00;77.00
13198;DHT22;6664;52.514;13.440;2022-11-15T15:21:40;9.80;77.90
13198;DHT22;6664;52.514;13.440;2022-11-15T15:24:25;9.80;78.70
13198;DHT22;6664;52.514;13.440;2022-11-15T15:27:12;9.70;79.40
13198;DHT22;6664;52.514;13.440;2022-11-15T15:29:58;9.70;79.90
13198;DHT22;6664;52.514;13.440;2022-11-15T15:32:46;9.50;80.20
13198;DHT22;6664;52.514;13.440;2022-11-15T15:35:33;9.50;81.00
13198;DHT22;6664;52.514;13.440;2022-11-15T15:38:21;9.30;81.20
13198;DHT22;6664;52.514;13.440;2022-11-15T15:41:14;9.30;82.00
13198;DHT22;6664;52.514;13.440;2022-11-15T15:44:00;9.30;82.90
13198;DHT22;6664;52.514;13.440;2022-11-15T15:46:46;9.10;82.80
13198;DHT22;6664;52.514;13.440;2022-11-15T15:49:32;9.10;83.10
13198;DHT22;6664;52.514;13.440;2022-11-15T15:52:17;9.10;84.20
13198;DHT22;6664;52.514;13.440;2022-11-15T15:55:03;9.00;84.80
13198;DHT22;6664;52.514;13.440;2022-11-15T15:57:49;8.90;85.20
13198;DHT22;6664;52.514;13.440;2022-11-15T16:00:38;8.90;85.90
13198;DHT22;6664;52.514;13.440;2022-11-15T16:03:23;8.80;86.90
13198;DHT22;6664;52.514;13.440;2022-11-15T16:06:48;8.90;87.40
13198;DHT22;6664;52.514;13.440;2022-11-15T16:09:35;8.70;87.50
13198;DHT22;6664;52.514;13.440;2022-11-15T16:12:39;8.70;88.10
13198;DHT22;6664;52.514;13.440;2022-11-15T16:15:29;8.70;88.80
13198;DHT22;6664;52.514;13.440;2022-11-15T16:18:16;8.60;89.00
13198;DHT22;6664;52.514;13.440;2022-11-15T16:21:02;8.60;90.00
13198;DHT22;6664;52.514;13.440;2022-11-15T16:23:47;8.70;90.50
13198;DHT22;6664;52.514;13.440;2022-11-15T16:26:34;8.60;90.40
13198;DHT22;6664;52.514;13.440;2022-11-15T16:29:20;8.60;90.60
13198;DHT22;6664;52.514;13.440;2022-11-15T16:32:06;8.50;91.20
13198;DHT22;6664;52.514;13.440;2022-11-15T16:34:52;8.60;91.30
13198;DHT22;6664;52.514;13.440;2022-11-15T16:37:37;8.50;91.30
13198;DHT22;6664;52.514;13.440;2022-11-15T16:43:12;8.60;91.90
13198;DHT22;6664;52.514;13.440;2022-11-15T16:45:58;8.60;92.00
13198;DHT22;6664;52.514;13.440;2022-11-15T16:48:44;8.50;92.00
13198;DHT22;6664;52.514;13.440;2022-11-15T16:51:29;8.60;92.30
13198;DHT22;6664;52.514;13.440;2022-11-15T16:54:15;8.50;92.20
13198;DHT22;6664;52.514;13.440;2022-11-15T16:57:00;8.30;92.10
13198;DHT22;6664;52.514;13.440;2022-11-15T16:59:46;8.30;92.40
13198;DHT22;6664;52.514;13.440;2022-11-15T17:02:31;8.20;92.50
13198;DHT22;6664;52.514;13.440;2022-11-15T17:05:22;8.10;92.80
13198;DHT22;6664;52.514;13.440;2022-11-15T17:08:08;8.10;93.00
13198;DHT22;6664;52.514;13.440;2022-11-15T17:10:53;8.00;93.00
13198;DHT22;6664;52.514;13.440;2022-11-15T17:13:39;8.00;93.30
13198;DHT22;6664;52.514;13.440;2022-11-15T17:16:24;7.90;93.50
13198;DHT22;6664;52.514;13.440;2022-11-15T17:19:18;7.90;93.70
13198;DHT22;6664;52.514;13.440;2022-11-15T17:22:05;7.80;93.90
13198;DHT22;6664;52.514;13.440;2022-11-15T17:24:50;7.80;94.10
13198;DHT22;6664;52.514;13.440;2022-11-15T17:27:36;7.70;94.20
13198;DHT22;6664;52.514;13.440;2022-11-15T17:30:24;7.70;94.40
13198;DHT22;6664;52.514;13.440;2022-11-15T17:33:09;7.60;94.50
13198;DHT22;6664;52.514;13.440;2022-11-15T17:35:59;7.60;94.60
13198;DHT22;6664;52.514;13.440;2022-11-15T17:38:45;7.60;95.00
13198;DHT22;6664;52.514;13.440;2022-11-15T17:41:34;7.50;94.90
13198;DHT22;6664;52.514;13.440;2022-11-15T17:44:24;7.50;95.10
13198;DHT22;6664;52.514;13.440;2022-11-15T17:47:12;7.50;95.30
13198;DHT22;6664;52.514;13.440;2022-11-15T17:49:57;7.40;95.50
13198;DHT22;6664;52.514;13.440;2022-11-15T17:52:43;7.50;95.70
13198;DHT22;6664;52.514;13.440;2022-11-15T17:55:28;7.40;95.70
13198;DHT22;6664;52.514;13.440;2022-11-15T17:58:14;7.40;95.90
13198;DHT22;6664;52.514;13.440;2022-11-15T18:01:07;7.30;95.90
13198;DHT22;6664;52.514;13.440;2022-11-15T18:03:54;7.30;96.10
13198;DHT22;6664;52.514;13.440;2022-11-15T18:06:45;7.20;96.10
13198;DHT22;6664;52.514;13.440;2022-11-15T18:09:31;7.20;96.40
13198;DHT22;6664;52.514;13.440;2022-11-15T18:12:19;7.20;96.50
13198;DHT22;6664;52.514;13.440;2022-11-15T18:15:07;7.20;96.50
13198;DHT22;6664;52.514;13.440;2022-11-15T18:17:53;7.20;96.70
13198;DHT22;6664;52.514;13.440;2022-11-15T18:20:48;7.10;96.80
13198;DHT22;6664;52.514;13.440;2022-11-15T18:23:33;7.10;97.10
13198;DHT22;6664;52.514;13.440;2022-11-15T18:26:20;7.00;97.00
13198;DHT22;6664;52.514;13.440;2022-11-15T18:29:10;7.00;97.10
13198;DHT22;6664;52.514;13.440;2022-11-15T18:31:56;7.00;97.20
13198;DHT22;6664;52.514;13.440;2022-11-15T18:34:42;7.00;97.20
13198;DHT22;6664;52.514;13.440;2022-11-15T18:37:28;6.90;97.10
13198;DHT22;6664;52.514;13.440;2022-11-15T18:40:13;6.90;97.40
13198;DHT22;6664;52.514;13.440;2022-11-15T18:42:59;6.80;97.40
13198;DHT22;6664;52.514;13.440;2022-11-15T18:45:46;6.80;97.40
13198;DHT22;6664;52.514;13.440;2022-11-15T18:48:32;6.80;97.60
13198;DHT22;6664;52.514;13.440;2022-11-15T18:51:24;6.70;97.70
13198;DHT22;6664;52.514;13.440;2022-11-15T18:54:12;6.70;97.70
13198;DHT22;6664;52.514;13.440;2022-11-15T18:56:58;6.60;97.80
13198;DHT22;6664;52.514;13.440;2022-11-15T18:59:45;6.60;97.90
13198;DHT22;6664;52.514;13.440;2022-11-15T19:02:30;6.60;98.00
13198;DHT22;6664;52.514;13.440;2022-11-15T19:05:16;6.60;97.90
13198;DHT22;6664;52.514;13.440;2022-11-15T19:08:05;6.50;98.10
13198;DHT22;6664;52.514;13.440;2022-11-15T19:10:51;6.50;98.20
13198;DHT22;6664;52.514;13.440;2022-11-15T19:13:39;6.60;98.50
13198;DHT22;6664;52.514;13.440;2022-11-15T19:16:26;6.60;98.60
13198;DHT22;6664;52.514;13.440;2022-11-15T19:19:16;6.70;98.80
13198;DHT22;6664;52.514;13.440;2022-11-15T19:22:02;6.60;98.70
13198;DHT22;6664;52.514;13.440;2022-11-15T19:24:48;6.70;98.70
13198;DHT22;6664;52.514;13.440;2022-11-15T19:27:33;6.80;98.60
13198;DHT22;6664;52.514;13.440;2022-11-15T19:30:22;6.80;98.60
13198;DHT22;6664;52.514;13.440;2022-11-15T19:33:08;6.90;98.50
13198;DHT22;6664;52.514;13.440;2022-11-15T19:36:12;6.90;98.30
13198;DHT22;6664;52.514;13.440;2022-11-15T19:38:59;7.00;98.30
13198;DHT22;6664;52.514;13.440;2022-11-15T19:41:49;7.10;98.20
13198;DHT22;6664;52.514;13.440;2022-11-15T19:44:35;7.00;97.90
13198;DHT22;6664;52.514;13.440;2022-11-15T19:47:21;7.10;97.60
13198;DHT22;6664;52.514;13.440;2022-11-15T19:50:06;7.20;97.80
13198;DHT22;6664;52.514;13.440;2022-11-15T19:52:55;7.20;97.00
13198;DHT22;6664;52.514;13.440;2022-11-15T19:55:40;7.30;96.80
13198;DHT22;6664;52.514;13.440;2022-11-15T19:58:27;7.30;96.40